Wetterdaten: Woche 12.11.12 - 18.11.12 (KW46)
Datum Zeit Temp. Innen Temp. Aussen UV X Diff Temp. Feuchte Inne Feuchte Auss Sonnenschein Luftdruck Regen ab 0,1 Wind Sonnenschein T Regendauer Windben
12.11.2012 00:00 14,8 C 5,8 C 0,0 UV-I 0,0 C 58 % 95 % 0 % 1019,6 hPa 0,0 l/m 0,3 km/h (0 Bft) 0,00 h 0,07 h 1,0 km/h (0 Bft)
12.11.2012 01:00 14,8 C 6,3 C 0,0 UV-I 0,0 C 58 % 95 % 0 % 1020,1 hPa 0,0 l/m 0,9 km/h (0 Bft) 0,00 h 0,00 h 2,1 km/h (1 Bft)
12.11.2012 02:00 14,8 C 6,6 C 0,0 UV-I 0,0 C 58 % 94 % 0 % 1020,5 hPa 0,0 l/m 2,1 km/h (1 Bft) 0,00 h 0,00 h 4,2 km/h (1 Bft)
12.11.2012 03:00 14,8 C 6,5 C 0,0 UV-I 0,0 C 58 % 95 % 0 % 1020,8 hPa 0,0 l/m 0,5 km/h (0 Bft) 0,00 h 0,00 h 1,2 km/h (1 Bft)
12.11.2012 04:00 14,9 C 6,2 C 0,0 UV-I 0,0 C 58 % 94 % 0 % 1021,0 hPa 0,0 l/m 0,0 km/h (0 Bft) 0,00 h 0,00 h 0,0 km/h (0 Bft)
12.11.2012 05:00 14,9 C 6,3 C 0,0 UV-I 0,0 C 58 % 95 % 0 % 1021,5 hPa 0,0 l/m 0,0 km/h (0 Bft) 0,00 h 0,00 h 0,0 km/h (0 Bft)
12.11.2012 06:00 15,0 C 6,7 C 0,0 UV-I 0,0 C 58 % 95 % 0 % 1021,8 hPa 0,0 l/m 0,6 km/h (0 Bft) 0,00 h 0,00 h 1,6 km/h (1 Bft)
12.11.2012 07:00 14,8 C 6,5 C 0,0 UV-I 0,0 C 58 % 94 % 0 % 1022,3 hPa 0,0 l/m 0,2 km/h (0 Bft) 0,00 h 0,00 h 0,7 km/h (0 Bft)
12.11.2012 08:00 14,8 C 6,4 C 0,0 UV-I 0,0 C 58 % 95 % 0 % 1022,9 hPa 0,0 l/m 0,9 km/h (0 Bft) 0,00 h 0,00 h 2,1 km/h (1 Bft)
12.11.2012 09:00 14,9 C 6,6 C 0,0 UV-I 0,2 C 58 % 94 % 5 % 1023,5 hPa 0,0 l/m 1,4 km/h (1 Bft) 0,00 h 0,00 h 3,8 km/h (1 Bft)
12.11.2012 10:00 14,7 C 7,4 C 0,1 UV-I 2,5 C 57 % 93 % 62 % 1023,8 hPa 0,0 l/m 5,0 km/h (1 Bft) 0,27 h 0,00 h 7,8 km/h (2 Bft)
12.11.2012 11:00 14,8 C 8,4 C 0,4 UV-I 3,7 C 58 % 90 % 92 % 1024,2 hPa 0,0 l/m 4,7 km/h (1 Bft) 0,77 h 0,00 h 7,5 km/h (2 Bft)
12.11.2012 12:00 15,2 C 9,7 C 0,6 UV-I 7,0 C 57 % 86 % 100 % 1024,4 hPa 0,0 l/m 3,2 km/h (1 Bft) 1,00 h 0,00 h 5,2 km/h (1 Bft)
12.11.2012 13:00 15,9 C 10,6 C 0,5 UV-I 5,3 C 55 % 82 % 100 % 1024,9 hPa 0,0 l/m 3,6 km/h (1 Bft) 1,00 h 0,00 h 6,6 km/h (2 Bft)
12.11.2012 14:00 16,7 C 10,8 C 0,1 UV-I 2,8 C 53 % 79 % 76 % 1024,9 hPa 0,0 l/m 3,0 km/h (1 Bft) 0,73 h 0,00 h 5,1 km/h (1 Bft)
12.11.2012 15:00 17,0 C 10,0 C 0,0 UV-I 0,8 C 52 % 81 % 22 % 1024,5 hPa 0,0 l/m 3,2 km/h (1 Bft) 0,17 h 0,00 h 5,7 km/h (1 Bft)
12.11.2012 16:00 16,5 C 8,9 C 0,0 UV-I 0,0 C 52 % 82 % 0 % 1025,0 hPa 0,0 l/m 1,5 km/h (1 Bft) 0,00 h 0,00 h 2,0 km/h (1 Bft)
12.11.2012 17:00 15,7 C 7,9 C 0,0 UV-I 0,0 C 54 % 85 % 0 % 1025,2 hPa 0,0 l/m 0,2 km/h (0 Bft) 0,00 h 0,00 h 0,6 km/h (0 Bft)
12.11.2012 18:00 15,3 C 7,1 C 0,0 UV-I 0,0 C 55 % 87 % 0 % 1025,6 hPa 0,0 l/m 0,4 km/h (0 Bft) 0,00 h 0,00 h 1,0 km/h (0 Bft)
12.11.2012 19:00 15,1 C 6,4 C 0,0 UV-I 0,0 C 55 % 88 % 0 % 1026,1 hPa 0,0 l/m 0,1 km/h (0 Bft) 0,00 h 0,00 h 0,2 km/h (0 Bft)
12.11.2012 20:00 14,9 C 6,1 C 0,0 UV-I 0,0 C 55 % 90 % 0 % 1026,6 hPa 0,0 l/m 1,7 km/h (1 Bft) 0,00 h 0,00 h 3,7 km/h (1 Bft)
12.11.2012 21:00 14,8 C 6,1 C 0,0 UV-I 0,0 C 55 % 89 % 0 % 1027,0 hPa 0,0 l/m 0,8 km/h (0 Bft) 0,00 h 0,00 h 1,4 km/h (1 Bft)
12.11.2012 22:00 14,7 C 5,5 C 0,0 UV-I 0,0 C 54 % 89 % 0 % 1027,0 hPa 0,0 l/m 1,5 km/h (1 Bft) 0,00 h 0,00 h 3,2 km/h (1 Bft)
12.11.2012 23:00 14,6 C 5,0 C 0,0 UV-I 0,0 C 54 % 89 % 0 % 1027,2 hPa 0,0 l/m 0,7 km/h (0 Bft) 0,00 h 0,00 h 1,7 km/h (1 Bft)
13.11.2012 00:00 14,6 C 4,3 C 0,0 UV-I 0,0 C 54 % 90 % 0 % 1027,6 hPa 0,0 l/m 1,5 km/h (1 Bft) 0,00 h 0,00 h 3,6 km/h (1 Bft)
13.11.2012 01:00 14,4 C 4,0 C 0,0 UV-I 0,0 C 54 % 91 % 0 % 1027,8 hPa 0,0 l/m 2,4 km/h (1 Bft) 0,00 h 0,00 h 3,5 km/h (1 Bft)
13.11.2012 02:00 14,4 C 4,0 C 0,0 UV-I 0,0 C 53 % 93 % 0 % 1027,9 hPa 0,0 l/m 2,8 km/h (1 Bft) 0,00 h 0,00 h 5,2 km/h (1 Bft)
13.11.2012 03:00 14,4 C 4,4 C 0,0 UV-I 0,0 C 53 % 93 % 0 % 1028,0 hPa 0,0 l/m 4,7 km/h (1 Bft) 0,00 h 0,00 h 7,0 km/h (2 Bft)
13.11.2012 04:00 14,5 C 4,7 C 0,0 UV-I 0,0 C 53 % 93 % 0 % 1028,2 hPa 0,0 l/m 5,8 km/h (2 Bft) 0,00 h 0,00 h 7,6 km/h (2 Bft)
13.11.2012 05:00 14,5 C 4,8 C 0,0 UV-I 0,0 C 53 % 93 % 0 % 1028,4 hPa 0,0 l/m 4,8 km/h (1 Bft) 0,00 h 0,00 h 7,7 km/h (2 Bft)
13.11.2012 06:00 14,4 C 5,0 C 0,0 UV-I 0,0 C 53 % 93 % 0 % 1028,7 hPa 0,0 l/m 5,0 km/h (1 Bft) 0,00 h 0,00 h 7,4 km/h (2 Bft)
13.11.2012 07:00 14,3 C 5,1 C 0,0 UV-I 0,0 C 53 % 93 % 0 % 1029,1 hPa 0,0 l/m 5,7 km/h (1 Bft) 0,00 h 0,00 h 8,6 km/h (2 Bft)
13.11.2012 08:00 14,4 C 4,8 C 0,0 UV-I 0,0 C 54 % 94 % 0 % 1029,6 hPa 0,0 l/m 6,7 km/h (2 Bft) 0,00 h 0,00 h 10,7 km/h (2 Bft)
13.11.2012 09:00 14,3 C 5,0 C 0,0 UV-I 0,1 C 54 % 95 % 3 % 1030,2 hPa 0,0 l/m 5,1 km/h (1 Bft) 0,00 h 0,00 h 7,6 km/h (2 Bft)
13.11.2012 10:00 14,6 C 6,1 C 0,0 UV-I 1,4 C 54 % 95 % 41 % 1030,5 hPa 0,0 l/m 5,5 km/h (1 Bft) 0,00 h 0,00 h 8,5 km/h (2 Bft)
13.11.2012 11:00 14,8 C 7,1 C 0,0 UV-I 1,1 C 54 % 93 % 30 % 1030,7 hPa 0,0 l/m 4,4 km/h (1 Bft) 0,00 h 0,00 h 5,8 km/h (2 Bft)
13.11.2012 12:00 14,9 C 7,4 C 0,0 UV-I 0,5 C 54 % 91 % 14 % 1030,6 hPa 0,0 l/m 5,0 km/h (1 Bft) 0,00 h 0,00 h 7,6 km/h (2 Bft)
13.11.2012 13:00 14,9 C 7,7 C 0,0 UV-I 0,3 C 54 % 91 % 10 % 1030,3 hPa 0,0 l/m 4,4 km/h (1 Bft) 0,00 h 0,00 h 6,2 km/h (2 Bft)
13.11.2012 14:00 14,8 C 8,2 C 0,0 UV-I 0,4 C 55 % 90 % 10 % 1030,2 hPa 0,0 l/m 5,5 km/h (1 Bft) 0,00 h 0,00 h 7,9 km/h (2 Bft)
13.11.2012 15:00 15,0 C 8,5 C 0,0 UV-I 0,2 C 58 % 89 % 5 % 1029,9 hPa 0,0 l/m 4,5 km/h (1 Bft) 0,00 h 0,00 h 6,2 km/h (2 Bft)
13.11.2012 16:00 15,1 C 8,5 C 0,0 UV-I 0,0 C 59 % 89 % 0 % 1030,0 hPa 0,0 l/m 4,6 km/h (1 Bft) 0,00 h 0,00 h 5,9 km/h (2 Bft)
13.11.2012 17:00 14,9 C 8,3 C 0,0 UV-I 0,0 C 58 % 89 % 0 % 1030,0 hPa 0,0 l/m 4,5 km/h (1 Bft) 0,00 h 0,00 h 6,9 km/h (2 Bft)
13.11.2012 18:00 14,9 C 8,3 C 0,0 UV-I 0,0 C 58 % 90 % 0 % 1030,2 hPa 0,0 l/m 3,3 km/h (1 Bft) 0,00 h 0,00 h 4,9 km/h (1 Bft)
13.11.2012 19:00 14,8 C 8,3 C 0,0 UV-I 0,0 C 58 % 90 % 0 % 1030,4 hPa 0,0 l/m 1,3 km/h (1 Bft) 0,00 h 0,00 h 3,0 km/h (1 Bft)
13.11.2012 20:00 14,8 C 8,3 C 0,0 UV-I 0,0 C 58 % 90 % 0 % 1030,5 hPa 0,0 l/m 0,4 km/h (0 Bft) 0,00 h 0,00 h 0,6 km/h (0 Bft)
13.11.2012 21:00 14,9 C 8,3 C 0,0 UV-I 0,0 C 58 % 90 % 0 % 1030,4 hPa 0,0 l/m 0,6 km/h (0 Bft) 0,00 h 0,00 h 1,6 km/h (1 Bft)
13.11.2012 22:00 14,8 C 8,4 C 0,0 UV-I 0,0 C 58 % 89 % 0 % 1030,3 hPa 0,0 l/m 0,7 km/h (0 Bft) 0,00 h 0,00 h 0,9 km/h (0 Bft)
13.11.2012 23:00 14,8 C 8,3 C 0,0 UV-I 0,0 C 57 % 88 % 0 % 1030,2 hPa 0,0 l/m 1,3 km/h (1 Bft) 0,00 h 0,00 h 2,5 km/h (1 Bft)
14.11.2012 00:00 14,9 C 8,2 C 0,0 UV-I 0,0 C 57 % 87 % 0 % 1030,3 hPa 0,0 l/m 3,3 km/h (1 Bft) 0,00 h 0,00 h 5,8 km/h (2 Bft)
14.11.2012 01:00 14,9 C 7,8 C 0,0 UV-I 0,0 C 56 % 85 % 0 % 1030,2 hPa 0,0 l/m 3,4 km/h (1 Bft) 0,00 h 0,00 h 6,4 km/h (2 Bft)
14.11.2012 02:00 14,8 C 7,2 C 0,0 UV-I 0,0 C 55 % 85 % 0 % 1030,3 hPa 0,0 l/m 3,7 km/h (1 Bft) 0,00 h 0,00 h 5,1 km/h (1 Bft)
14.11.2012 03:00 14,8 C 6,6 C 0,0 UV-I 0,0 C 55 % 85 % 0 % 1030,3 hPa 0,0 l/m 4,3 km/h (1 Bft) 0,00 h 0,00 h 6,8 km/h (2 Bft)
14.11.2012 04:00 14,7 C 6,1 C 0,0 UV-I 0,0 C 55 % 87 % 0 % 1029,8 hPa 0,0 l/m 2,7 km/h (1 Bft) 0,00 h 0,00 h 4,0 km/h (1 Bft)
14.11.2012 05:00 14,6 C 5,3 C 0,0 UV-I 0,0 C 54 % 88 % 0 % 1029,8 hPa 0,0 l/m 4,2 km/h (1 Bft) 0,00 h 0,00 h 5,8 km/h (2 Bft)
14.11.2012 06:00 14,5 C 4,6 C 0,0 UV-I 0,0 C 54 % 89 % 0 % 1029,4 hPa 0,0 l/m 3,9 km/h (1 Bft) 0,00 h 0,00 h 6,0 km/h (2 Bft)
14.11.2012 07:00 14,3 C 3,9 C 0,0 UV-I 0,0 C 54 % 90 % 0 % 1029,6 hPa 0,0 l/m 1,9 km/h (1 Bft) 0,00 h 0,00 h 3,4 km/h (1 Bft)
14.11.2012 08:00 14,3 C 3,6 C 0,0 UV-I 0,0 C 53 % 92 % 0 % 1029,4 hPa 0,0 l/m 2,8 km/h (1 Bft) 0,00 h 0,00 h 5,2 km/h (1 Bft)
14.11.2012 09:00 14,3 C 4,5 C 0,0 UV-I 2,3 C 53 % 86 % 49 % 1029,3 hPa 0,0 l/m 4,8 km/h (1 Bft) 0,50 h 0,00 h 8,2 km/h (2 Bft)
14.11.2012 10:00 14,2 C 6,4 C 0,2 UV-I 6,0 C 52 % 81 % 100 % 1029,2 hPa 0,0 l/m 6,1 km/h (2 Bft) 1,00 h 0,00 h 8,8 km/h (2 Bft)
14.11.2012 11:00 14,2 C 8,3 C 0,5 UV-I 6,2 C 52 % 76 % 100 % 1028,5 hPa 0,0 l/m 6,1 km/h (2 Bft) 1,00 h 0,00 h 9,2 km/h (2 Bft)
14.11.2012 12:00 14,4 C 9,6 C 0,6 UV-I 6,6 C 52 % 71 % 100 % 1028,1 hPa 0,0 l/m 4,3 km/h (1 Bft) 1,00 h 0,00 h 5,4 km/h (1 Bft)
14.11.2012 13:00 15,1 C 10,3 C 0,4 UV-I 5,8 C 51 % 67 % 100 % 1028,2 hPa 0,0 l/m 5,1 km/h (1 Bft) 1,00 h 0,00 h 7,2 km/h (2 Bft)
14.11.2012 14:00 16,4 C 11,5 C 0,3 UV-I 5,0 C 47 % 63 % 100 % 1027,7 hPa 0,0 l/m 3,9 km/h (1 Bft) 1,00 h 0,00 h 6,4 km/h (2 Bft)
14.11.2012 15:00 17,4 C 10,7 C 0,0 UV-I 2,5 C 46 % 64 % 55 % 1025,9 hPa 0,0 l/m 1,6 km/h (1 Bft) 0,60 h 0,00 h 2,7 km/h (1 Bft)
14.11.2012 16:00 16,7 C 9,4 C 0,0 UV-I 0,0 C 47 % 69 % 0 % 1026,5 hPa 0,0 l/m 0,0 km/h (0 Bft) 0,00 h 0,00 h 0,0 km/h (0 Bft)
14.11.2012 17:00 15,8 C 7,0 C 0,0 UV-I 0,0 C 49 % 75 % 0 % 1027,1 hPa 0,0 l/m 2,0 km/h (1 Bft) 0,00 h 0,00 h 3,2 km/h (1 Bft)
14.11.2012 18:00 15,1 C 5,7 C 0,0 UV-I 0,0 C 50 % 80 % 0 % 1027,0 hPa 0,0 l/m 7,8 km/h (2 Bft) 0,00 h 0,00 h 10,6 km/h (2 Bft)
14.11.2012 19:00 14,7 C 4,5 C 0,0 UV-I 0,0 C 51 % 83 % 0 % 1026,2 hPa 0,0 l/m 7,1 km/h (2 Bft) 0,00 h 0,00 h 11,7 km/h (2 Bft)
14.11.2012 20:00 14,4 C 3,8 C 0,0 UV-I 0,0 C 51 % 86 % 0 % 1025,8 hPa 0,0 l/m 7,2 km/h (2 Bft) 0,00 h 0,00 h 9,5 km/h (2 Bft)
14.11.2012 21:00 14,4 C 3,9 C 0,0 UV-I 0,0 C 51 % 88 % 0 % 1025,5 hPa 0,0 l/m 4,4 km/h (1 Bft) 0,00 h 0,00 h 6,8 km/h (2 Bft)
14.11.2012 22:00 14,4 C 5,0 C 0,0 UV-I 0,0 C 52 % 88 % 0 % 1025,3 hPa 0,0 l/m 5,5 km/h (1 Bft) 0,00 h 0,00 h 9,0 km/h (2 Bft)
14.11.2012 23:00 14,4 C 5,3 C 0,0 UV-I 0,0 C 52 % 86 % 0 % 1025,1 hPa 0,0 l/m 5,1 km/h (1 Bft) 0,00 h 0,00 h 7,4 km/h (2 Bft)
15.11.2012 00:00 14,4 C 5,5 C 0,0 UV-I 0,0 C 52 % 86 % 0 % 1025,2 hPa 0,0 l/m 3,8 km/h (1 Bft) 0,00 h 0,00 h 6,0 km/h (2 Bft)
15.11.2012 01:00 14,4 C 5,5 C 0,0 UV-I 0,0 C 52 % 86 % 0 % 1025,0 hPa 0,0 l/m 1,8 km/h (1 Bft) 0,00 h 0,00 h 3,6 km/h (1 Bft)
15.11.2012 02:00 14,3 C 5,5 C 0,0 UV-I 0,0 C 52 % 86 % 0 % 1025,0 hPa 0,0 l/m 1,4 km/h (1 Bft) 0,00 h 0,00 h 2,0 km/h (1 Bft)
15.11.2012 03:00 14,3 C 5,4 C 0,0 UV-I 0,0 C 52 % 86 % 0 % 1024,1 hPa 0,0 l/m 0,9 km/h (0 Bft) 0,00 h 0,00 h 1,0 km/h (0 Bft)
15.11.2012 04:00 14,3 C 5,2 C 0,0 UV-I 0,0 C 52 % 86 % 0 % 1023,9 hPa 0,0 l/m 1,0 km/h (0 Bft) 0,00 h 0,00 h 2,0 km/h (1 Bft)
15.11.2012 05:00 14,4 C 5,2 C 0,0 UV-I 0,0 C 52 % 86 % 0 % 1023,9 hPa 0,0 l/m 0,6 km/h (0 Bft) 0,00 h 0,00 h 0,9 km/h (0 Bft)
15.11.2012 06:00 14,4 C 5,2 C 0,0 UV-I 0,0 C 52 % 86 % 0 % 1024,0 hPa 0,0 l/m 0,4 km/h (0 Bft) 0,00 h 0,00 h 0,3 km/h (0 Bft)
15.11.2012 07:00 14,4 C 5,2 C 0,0 UV-I 0,0 C 52 % 86 % 0 % 1024,0 hPa 0,0 l/m 0,2 km/h (0 Bft) 0,00 h 0,00 h 0,5 km/h (0 Bft)
15.11.2012 08:00 14,4 C 5,2 C 0,0 UV-I 0,0 C 52 % 86 % 0 % 1024,1 hPa 0,0 l/m 1,0 km/h (0 Bft) 0,00 h 0,00 h 2,3 km/h (1 Bft)
15.11.2012 09:00 14,2 C 5,4 C 0,0 UV-I 0,2 C 52 % 85 % 5 % 1024,3 hPa 0,0 l/m 1,7 km/h (1 Bft) 0,00 h 0,00 h 3,4 km/h (1 Bft)
15.11.2012 10:00 14,2 C 5,7 C 0,0 UV-I 0,9 C 53 % 83 % 25 % 1024,4 hPa 0,1 l/m 2,3 km/h (1 Bft) 0,00 h 0,00 h 3,3 km/h (1 Bft)
15.11.2012 11:00 14,4 C 5,8 C 0,0 UV-I 0,6 C 51 % 80 % 18 % 1024,2 hPa 0,0 l/m 2,9 km/h (1 Bft) 0,00 h 0,00 h 4,3 km/h (1 Bft)
15.11.2012 12:00 14,4 C 6,0 C 0,0 UV-I 0,8 C 51 % 79 % 23 % 1023,6 hPa 0,0 l/m 2,2 km/h (1 Bft) 0,00 h 0,00 h 3,9 km/h (1 Bft)
15.11.2012 13:00 14,4 C 6,0 C 0,0 UV-I 0,4 C 50 % 80 % 13 % 1022,9 hPa 0,0 l/m 1,6 km/h (1 Bft) 0,00 h 0,00 h 2,5 km/h (1 Bft)
15.11.2012 14:00 14,4 C 5,8 C 0,0 UV-I 0,1 C 50 % 80 % 2 % 1022,6 hPa 0,0 l/m 1,6 km/h (1 Bft) 0,00 h 0,00 h 2,7 km/h (1 Bft)
15.11.2012 15:00 14,4 C 5,5 C 0,0 UV-I 0,0 C 51 % 81 % 0 % 1022,3 hPa 0,0 l/m 1,7 km/h (1 Bft) 0,00 h 0,00 h 2,5 km/h (1 Bft)
15.11.2012 16:00 14,3 C 5,2 C 0,0 UV-I 0,0 C 51 % 81 % 0 % 1022,1 hPa 0,0 l/m 0,9 km/h (0 Bft) 0,00 h 0,00 h 1,6 km/h (1 Bft)
15.11.2012 17:00 14,2 C 5,1 C 0,0 UV-I 0,0 C 51 % 82 % 0 % 1022,0 hPa 0,0 l/m 1,1 km/h (0 Bft) 0,00 h 0,00 h 1,9 km/h (1 Bft)
15.11.2012 18:00 14,2 C 5,1 C 0,0 UV-I 0,0 C 51 % 82 % 0 % 1021,9 hPa 0,0 l/m 0,7 km/h (0 Bft) 0,00 h 0,00 h 2,1 km/h (1 Bft)
15.11.2012 19:00 14,1 C 5,1 C 0,0 UV-I 0,0 C 51 % 82 % 0 % 1021,9 hPa 0,0 l/m 0,7 km/h (0 Bft) 0,00 h 0,00 h 1,6 km/h (1 Bft)
15.11.2012 20:00 14,0 C 5,1 C 0,0 UV-I 0,0 C 51 % 82 % 0 % 1021,5 hPa 0,0 l/m 2,0 km/h (1 Bft) 0,00 h 0,00 h 3,3 km/h (1 Bft)
15.11.2012 21:00 13,9 C 5,1 C 0,0 UV-I 0,0 C 51 % 83 % 0 % 1021,1 hPa 0,0 l/m 1,3 km/h (1 Bft) 0,00 h 0,00 h 1,9 km/h (1 Bft)
15.11.2012 22:00 13,9 C 5,1 C 0,0 UV-I 0,0 C 50 % 83 % 0 % 1021,1 hPa 0,0 l/m 1,0 km/h (0 Bft) 0,00 h 0,00 h 1,9 km/h (1 Bft)
15.11.2012 23:00 13,7 C 5,0 C 0,0 UV-I 0,0 C 50 % 83 % 0 % 1021,0 hPa 0,0 l/m 2,1 km/h (1 Bft) 0,00 h 0,00 h 3,4 km/h (1 Bft)
16.11.2012 00:00 13,6 C 4,8 C 0,0 UV-I 0,0 C 50 % 83 % 0 % 1020,6 hPa 0,0 l/m 2,0 km/h (1 Bft) 0,00 h 0,00 h 3,1 km/h (1 Bft)
16.11.2012 01:00 13,6 C 4,7 C 0,0 UV-I 0,0 C 50 % 83 % 0 % 1020,1 hPa 0,0 l/m 1,4 km/h (1 Bft) 0,00 h 0,00 h 2,4 km/h (1 Bft)
16.11.2012 02:00 13,5 C 4,5 C 0,0 UV-I 0,0 C 50 % 83 % 0 % 1019,9 hPa 0,0 l/m 2,9 km/h (1 Bft) 0,00 h 0,00 h 5,6 km/h (1 Bft)
16.11.2012 03:00 13,4 C 4,4 C 0,0 UV-I 0,0 C 50 % 83 % 0 % 1019,8 hPa 0,0 l/m 1,8 km/h (1 Bft) 0,00 h 0,00 h 3,2 km/h (1 Bft)
16.11.2012 04:00 13,4 C 4,4 C 0,0 UV-I 0,0 C 50 % 83 % 0 % 1019,6 hPa 0,0 l/m 1,1 km/h (0 Bft) 0,00 h 0,00 h 1,7 km/h (1 Bft)
16.11.2012 05:00 13,2 C 4,3 C 0,0 UV-I 0,0 C 50 % 83 % 0 % 1019,0 hPa 0,0 l/m 1,3 km/h (1 Bft) 0,00 h 0,00 h 2,7 km/h (1 Bft)
16.11.2012 06:00 13,2 C 4,2 C 0,0 UV-I 0,0 C 50 % 83 % 0 % 1018,9 hPa 0,0 l/m 0,7 km/h (0 Bft) 0,00 h 0,00 h 1,6 km/h (1 Bft)
16.11.2012 07:00 13,1 C 4,1 C 0,0 UV-I 0,0 C 50 % 83 % 0 % 1018,9 hPa 0,0 l/m 1,5 km/h (1 Bft) 0,00 h 0,00 h 2,3 km/h (1 Bft)
16.11.2012 08:00 13,2 C 4,0 C 0,0 UV-I 0,0 C 50 % 83 % 0 % 1019,0 hPa 0,0 l/m 1,7 km/h (1 Bft) 0,00 h 0,00 h 2,6 km/h (1 Bft)
16.11.2012 09:00 13,1 C 4,2 C 0,0 UV-I 0,0 C 50 % 84 % 0 % 1018,8 hPa 0,0 l/m 1,9 km/h (1 Bft) 0,00 h 0,00 h 4,1 km/h (1 Bft)
16.11.2012 10:00 13,3 C 4,5 C 0,0 UV-I 0,1 C 50 % 83 % 3 % 1018,5 hPa 0,0 l/m 3,4 km/h (1 Bft) 0,00 h 0,00 h 5,8 km/h (2 Bft)
16.11.2012 11:00 13,5 C 4,8 C 0,0 UV-I 0,4 C 50 % 83 % 11 % 1018,6 hPa 0,0 l/m 2,4 km/h (1 Bft) 0,00 h 0,00 h 4,5 km/h (1 Bft)
16.11.2012 12:00 13,6 C 5,2 C 0,0 UV-I 0,6 C 50 % 82 % 18 % 1018,2 hPa 0,0 l/m 4,0 km/h (1 Bft) 0,00 h 0,00 h 7,2 km/h (2 Bft)
16.11.2012 13:00 13,7 C 5,3 C 0,0 UV-I 0,8 C 50 % 80 % 24 % 1017,7 hPa 0,0 l/m 4,2 km/h (1 Bft) 0,00 h 0,00 h 6,6 km/h (2 Bft)
16.11.2012 14:00 13,8 C 5,5 C 0,0 UV-I 0,8 C 49 % 80 % 22 % 1016,9 hPa 0,0 l/m 4,5 km/h (1 Bft) 0,00 h 0,00 h 7,0 km/h (2 Bft)
16.11.2012 15:00 14,1 C 5,7 C 0,0 UV-I 0,7 C 49 % 80 % 21 % 1016,1 hPa 0,0 l/m 3,1 km/h (1 Bft) 0,20 h 0,00 h 4,6 km/h (1 Bft)
16.11.2012 16:00 14,0 C 5,3 C 0,0 UV-I 0,0 C 49 % 80 % 0 % 1016,2 hPa 0,0 l/m 0,4 km/h (0 Bft) 0,00 h 0,00 h 0,8 km/h (0 Bft)
16.11.2012 17:00 13,6 C 4,5 C 0,0 UV-I 0,0 C 49 % 81 % 0 % 1016,0 hPa 0,0 l/m 0,8 km/h (0 Bft) 0,00 h 0,00 h 1,5 km/h (1 Bft)
16.11.2012 18:00 13,2 C 3,8 C 0,0 UV-I 0,0 C 49 % 83 % 0 % 1015,8 hPa 0,0 l/m 1,1 km/h (1 Bft) 0,00 h 0,00 h 1,8 km/h (1 Bft)
16.11.2012 19:00 13,0 C 3,2 C 0,0 UV-I 0,0 C 50 % 84 % 0 % 1015,5 hPa 0,0 l/m 1,5 km/h (1 Bft) 0,00 h 0,00 h 3,0 km/h (1 Bft)
16.11.2012 20:00 12,8 C 2,9 C 0,0 UV-I 0,0 C 49 % 85 % 0 % 1015,1 hPa 0,0 l/m 2,4 km/h (1 Bft) 0,00 h 0,00 h 4,2 km/h (1 Bft)
16.11.2012 21:00 12,6 C 2,8 C 0,0 UV-I 0,0 C 50 % 87 % 0 % 1014,6 hPa 0,0 l/m 4,8 km/h (1 Bft) 0,00 h 0,00 h 6,6 km/h (2 Bft)
16.11.2012 22:00 12,4 C 2,8 C 0,0 UV-I 0,0 C 50 % 87 % 0 % 1014,5 hPa 0,0 l/m 5,2 km/h (1 Bft) 0,00 h 0,00 h 8,3 km/h (2 Bft)
16.11.2012 23:00 12,4 C 2,7 C 0,0 UV-I 0,0 C 50 % 88 % 0 % 1013,9 hPa 0,0 l/m 5,4 km/h (1 Bft) 0,00 h 0,00 h 8,1 km/h (2 Bft)
17.11.2012 00:00 12,3 C 2,7 C 0,0 UV-I 0,0 C 51 % 88 % 0 % 1013,3 hPa 0,0 l/m 6,1 km/h (2 Bft) 0,00 h 0,00 h 9,5 km/h (2 Bft)
17.11.2012 01:00 12,2 C 2,7 C 0,0 UV-I 0,0 C 51 % 89 % 0 % 1012,9 hPa 0,0 l/m 7,2 km/h (2 Bft) 0,00 h 0,00 h 11,0 km/h (2 Bft)
17.11.2012 02:00 12,2 C 2,6 C 0,0 UV-I 0,0 C 51 % 89 % 0 % 1012,3 hPa 0,0 l/m 3,5 km/h (1 Bft) 0,00 h 0,00 h 5,0 km/h (1 Bft)
17.11.2012 03:00 12,2 C 2,5 C 0,0 UV-I 0,0 C 51 % 89 % 0 % 1012,0 hPa 0,0 l/m 3,4 km/h (1 Bft) 0,00 h 0,00 h 5,1 km/h (1 Bft)
17.11.2012 04:00 12,1 C 2,6 C 0,0 UV-I 0,0 C 51 % 90 % 0 % 1011,4 hPa 0,0 l/m 7,2 km/h (2 Bft) 0,00 h 0,00 h 11,0 km/h (2 Bft)
17.11.2012 05:00 12,0 C 2,7 C 0,0 UV-I 0,0 C 52 % 90 % 0 % 1011,1 hPa 0,0 l/m 7,3 km/h (2 Bft) 0,00 h 0,00 h 9,2 km/h (2 Bft)
17.11.2012 06:00 12,0 C 2,8 C 0,0 UV-I 0,0 C 52 % 90 % 0 % 1010,8 hPa 0,0 l/m 9,0 km/h (2 Bft) 0,00 h 0,00 h 12,5 km/h (3 Bft)
17.11.2012 07:00 11,8 C 3,0 C 0,0 UV-I 0,0 C 53 % 90 % 0 % 1010,7 hPa 0,0 l/m 10,9 km/h (2 Bft) 0,00 h 0,00 h 14,2 km/h (3 Bft)
17.11.2012 08:00 11,8 C 3,2 C 0,0 UV-I 0,0 C 53 % 90 % 0 % 1010,9 hPa 0,0 l/m 9,1 km/h (2 Bft) 0,00 h 0,00 h 13,2 km/h (3 Bft)
17.11.2012 09:00 11,8 C 4,0 C 0,0 UV-I 1,2 C 54 % 90 % 34 % 1010,4 hPa 0,0 l/m 11,2 km/h (2 Bft) 0,40 h 0,00 h 13,9 km/h (3 Bft)
17.11.2012 10:00 11,9 C 5,1 C 0,0 UV-I 1,8 C 55 % 89 % 53 % 1010,5 hPa 0,0 l/m 9,9 km/h (2 Bft) 0,20 h 0,00 h 13,6 km/h (3 Bft)
17.11.2012 11:00 12,4 C 6,4 C 0,1 UV-I 1,8 C 55 % 88 % 53 % 1010,5 hPa 0,0 l/m 9,3 km/h (2 Bft) 0,00 h 0,00 h 12,6 km/h (3 Bft)
17.11.2012 12:00 12,9 C 7,9 C 0,3 UV-I 3,3 C 55 % 85 % 90 % 1010,1 hPa 0,0 l/m 8,8 km/h (2 Bft) 0,80 h 0,00 h 13,2 km/h (3 Bft)
17.11.2012 13:00 13,6 C 9,3 C 0,3 UV-I 4,2 C 55 % 82 % 100 % 1010,1 hPa 0,0 l/m 5,5 km/h (1 Bft) 1,00 h 0,00 h 7,7 km/h (2 Bft)
17.11.2012 14:00 14,3 C 9,8 C 0,0 UV-I 1,1 C 54 % 80 % 30 % 1009,8 hPa 0,0 l/m 4,3 km/h (1 Bft) 0,17 h 0,00 h 6,4 km/h (2 Bft)
17.11.2012 15:00 14,1 C 9,6 C 0,0 UV-I 0,0 C 55 % 82 % 0 % 1009,2 hPa 0,0 l/m 2,6 km/h (1 Bft) 0,00 h 0,00 h 3,9 km/h (1 Bft)
17.11.2012 16:00 13,9 C 9,4 C 0,0 UV-I 0,0 C 56 % 82 % 0 % 1009,2 hPa 0,0 l/m 2,7 km/h (1 Bft) 0,00 h 0,00 h 4,1 km/h (1 Bft)
17.11.2012 17:00 13,9 C 9,1 C 0,0 UV-I 0,0 C 56 % 83 % 0 % 1009,2 hPa 0,0 l/m 3,2 km/h (1 Bft) 0,00 h 0,00 h 5,3 km/h (1 Bft)
17.11.2012 18:00 13,8 C 8,8 C 0,0 UV-I 0,0 C 57 % 84 % 0 % 1009,2 hPa 0,0 l/m 2,4 km/h (1 Bft) 0,00 h 0,00 h 4,7 km/h (1 Bft)
17.11.2012 19:00 13,8 C 8,7 C 0,0 UV-I 0,0 C 57 % 85 % 0 % 1009,2 hPa 0,0 l/m 1,1 km/h (1 Bft) 0,00 h 0,00 h 1,9 km/h (1 Bft)
17.11.2012 20:00 13,9 C 8,4 C 0,0 UV-I 0,0 C 58 % 86 % 0 % 1009,4 hPa 0,0 l/m 1,4 km/h (1 Bft) 0,00 h 0,00 h 2,1 km/h (1 Bft)
17.11.2012 21:00 13,9 C 8,2 C 0,0 UV-I 0,0 C 58 % 87 % 0 % 1009,4 hPa 0,0 l/m 0,9 km/h (0 Bft) 0,00 h 0,00 h 1,4 km/h (1 Bft)
17.11.2012 22:00 14,0 C 8,1 C 0,0 UV-I 0,0 C 59 % 88 % 0 % 1009,6 hPa 0,0 l/m 0,3 km/h (0 Bft) 0,00 h 0,00 h 0,7 km/h (0 Bft)
17.11.2012 23:00 13,9 C 8,3 C 0,0 UV-I 0,0 C 59 % 89 % 0 % 1009,4 hPa 0,0 l/m 0,0 km/h (0 Bft) 0,00 h 0,00 h 0,0 km/h (0 Bft)
18.11.2012 00:00 14,0 C 8,9 C 0,0 UV-I 0,0 C 60 % 90 % 0 % 1009,6 hPa 0,0 l/m 0,8 km/h (0 Bft) 0,00 h 0,00 h 2,1 km/h (1 Bft)
18.11.2012 01:00 14,1 C 9,1 C 0,0 UV-I 0,0 C 60 % 89 % 0 % 1009,6 hPa 0,0 l/m 0,5 km/h (0 Bft) 0,00 h 0,00 h 1,0 km/h (0 Bft)
18.11.2012 02:00 14,2 C 8,9 C 0,0 UV-I 0,0 C 61 % 90 % 0 % 1009,6 hPa 0,0 l/m 0,0 km/h (0 Bft) 0,00 h 0,00 h 0,0 km/h (0 Bft)
18.11.2012 03:00 14,2 C 8,9 C 0,0 UV-I 0,0 C 61 % 90 % 0 % 1009,3 hPa 0,0 l/m 0,2 km/h (0 Bft) 0,00 h 0,00 h 0,6 km/h (0 Bft)
18.11.2012 04:00 14,2 C 8,8 C 0,0 UV-I 0,0 C 61 % 90 % 0 % 1009,1 hPa 0,0 l/m 1,2 km/h (1 Bft) 0,00 h 0,00 h 2,1 km/h (1 Bft)
18.11.2012 05:00 14,4 C 8,7 C 0,0 UV-I 0,0 C 62 % 91 % 0 % 1009,1 hPa 0,0 l/m 1,3 km/h (1 Bft) 0,00 h 0,10 h 2,1 km/h (1 Bft)
18.11.2012 06:00 14,4 C 8,5 C 0,0 UV-I 0,0 C 62 % 91 % 0 % 1009,3 hPa 0,5 l/m 0,1 km/h (0 Bft) 0,00 h 1,00 h 0,0 km/h (0 Bft)
18.11.2012 07:00 14,4 C 8,4 C 0,0 UV-I 0,0 C 62 % 91 % 0 % 1009,6 hPa 0,0 l/m 0,0 km/h (0 Bft) 0,00 h 0,53 h 0,1 km/h (0 Bft)
18.11.2012 08:00 14,3 C 8,4 C 0,0 UV-I 0,0 C 62 % 92 % 0 % 1010,3 hPa 0,0 l/m 0,0 km/h (0 Bft) 0,00 h 0,03 h 0,0 km/h (0 Bft)
18.11.2012 09:00 14,4 C 8,7 C 0,0 UV-I 0,0 C 63 % 92 % 0 % 1010,5 hPa 0,4 l/m 1,2 km/h (1 Bft) 0,00 h 0,43 h 3,2 km/h (1 Bft)
18.11.2012 10:00 14,6 C 8,7 C 0,0 UV-I 0,0 C 63 % 92 % 0 % 1011,3 hPa 0,0 l/m 5,6 km/h (1 Bft) 0,00 h 0,00 h 8,0 km/h (2 Bft)
18.11.2012 11:00 14,6 C 8,5 C 0,0 UV-I 0,0 C 63 % 93 % 0 % 1012,2 hPa 0,9 l/m 3,6 km/h (1 Bft) 0,00 h 0,93 h 5,1 km/h (1 Bft)
18.11.2012 12:00 14,7 C 8,5 C 0,0 UV-I 0,0 C 63 % 93 % 0 % 1012,5 hPa 0,5 l/m 2,1 km/h (1 Bft) 0,00 h 0,60 h 3,4 km/h (1 Bft)
18.11.2012 13:00 14,7 C 8,6 C 0,0 UV-I 0,0 C 63 % 93 % 0 % 1012,9 hPa 0,2 l/m 2,4 km/h (1 Bft) 0,00 h 0,57 h 3,1 km/h (1 Bft)
18.11.2012 14:00 14,8 C 8,6 C 0,0 UV-I 0,0 C 63 % 93 % 0 % 1013,0 hPa 0,1 l/m 3,5 km/h (1 Bft) 0,00 h 0,20 h 5,0 km/h (1 Bft)
18.11.2012 15:00 14,8 C 8,4 C 0,0 UV-I 0,0 C 62 % 93 % 0 % 1013,6 hPa 0,1 l/m 6,9 km/h (2 Bft) 0,00 h 0,23 h 10,2 km/h (2 Bft)
18.11.2012 16:00 14,8 C 7,9 C 0,0 UV-I 0,0 C 62 % 92 % 0 % 1014,2 hPa 0,0 l/m 3,5 km/h (1 Bft) 0,00 h 0,00 h 3,7 km/h (1 Bft)
18.11.2012 17:00 14,6 C 7,3 C 0,0 UV-I 0,0 C 62 % 92 % 0 % 1015,0 hPa 0,0 l/m 0,3 km/h (0 Bft) 0,00 h 0,00 h 0,2 km/h (0 Bft)
18.11.2012 18:00 14,4 C 5,8 C 0,0 UV-I 0,0 C 61 % 92 % 0 % 1015,6 hPa 0,0 l/m 0,0 km/h (0 Bft) 0,00 h 0,00 h 0,0 km/h (0 Bft)
18.11.2012 19:00 14,2 C 4,4 C 0,0 UV-I 0,0 C 60 % 92 % 0 % 1016,1 hPa 0,0 l/m 0,0 km/h (0 Bft) 0,00 h 0,00 h 0,0 km/h (0 Bft)
18.11.2012 20:00 14,0 C 3,5 C 0,0 UV-I 0,0 C 60 % 92 % 0 % 1016,6 hPa 0,0 l/m 0,0 km/h (0 Bft) 0,00 h 0,03 h 0,0 km/h (0 Bft)
18.11.2012 21:00 14,0 C 3,1 C 0,0 UV-I 0,0 C 60 % 93 % 0 % 1016,7 hPa 0,0 l/m 0,0 km/h (0 Bft) 0,00 h 0,03 h 0,0 km/h (0 Bft)
18.11.2012 22:00 13,9 C 2,6 C 0,0 UV-I 0,0 C 59 % 93 % 0 % 1017,0 hPa 0,0 l/m 0,0 km/h (0 Bft) 0,00 h 0,00 h 0,1 km/h (0 Bft)
18.11.2012 23:00 13,8 C 1,9 C 0,0 UV-I 0,0 C 58 % 93 % 0 % 1017,2 hPa 0,1 l/m 0,1 km/h (0 Bft) 0,00 h 0,07 h 0,1 km/h (0 Bft)
Min-Datum _ 17.11.12 18.11.12 12.11.12 12.11.12 14.11.12 14.11.12 12.11.12 17.11.12 - 12.11.12 - - 12.11.12
_ Min-Zeit 06:42 23:56 00:00 00:00 15:46 14:30 00:00 17:00 - 00:12 - - 00:00
Minimum _ 11,8 C 1,7 C 0,0 UV-I 0,0 C 45 % 62 % 0 % 1008,8 hPa - 0,0 km/h (0 Bft) - - 0,0 km/h (0 Bft)
Max-Datum _ 14.11.12 14.11.12 12.11.12 12.11.12 18.11.12 12.11.12 12.11.12 13.11.12 18.11.12 17.11.12 12.11.12 12.11.12 17.11.12
_ Max-Zeit 15:18 14:28 12:14 12:48 08:38 00:20 10:46 11:24 11:14 06:54 10:44 00:46 09:28
Maximum _ 17,6 C 11,7 C 0,7 UV-I 7,5 C 63 % 95 % 100 % 1030,8 hPa 0,9 l/m 12,4 km/h
O-SO (3 Bft)
0,03 h 0,03 h 30,9 km/h
O-SO (5 Bft)
Durchschnitt _ 14,2 C 6,2 C 0,0 UV-I 0,5 C 54 % 87 % 10 % 1020,7 hPa #3,0 l/m 2,9 km/h (1 Bft) #12:48 h #4:50 h 4,5 km/h (1 Bft)
© 2012 W. Hausmann